createdAt,value
2022-12-11T00:01:19.284Z,20.30
2022-12-11T00:03:46.874Z,19.63
2022-12-11T00:06:16.877Z,21.08
2022-12-11T00:08:43.504Z,18.83
2022-12-11T00:11:13.379Z,20.23
2022-12-11T00:13:39.915Z,21.15
2022-12-11T00:16:06.578Z,22.05
2022-12-11T00:18:33.013Z,19.65
2022-12-11T00:21:05.022Z,21.25
2022-12-11T00:23:31.658Z,19.05
2022-12-11T00:25:58.323Z,19.70
2022-12-11T00:28:24.733Z,20.60
2022-12-11T00:30:51.198Z,18.50
2022-12-11T00:33:17.835Z,19.35
2022-12-11T00:35:46.776Z,19.65
2022-12-11T00:38:18.916Z,21.15
2022-12-11T00:40:45.952Z,19.30
2022-12-11T00:43:12.895Z,21.33
2022-12-11T00:45:42.271Z,18.88
2022-12-11T00:48:09.546Z,18.92
2022-12-11T00:50:36.689Z,18.40
2022-12-11T00:53:04.970Z,19.38
2022-12-11T00:55:31.806Z,19.40
2022-12-11T00:58:01.058Z,20.58
2022-12-11T01:00:27.464Z,18.20
2022-12-11T01:02:54.028Z,18.80
2022-12-11T01:05:21.249Z,20.65
2022-12-11T01:07:48.008Z,20.85
2022-12-11T01:10:24.533Z,18.83
2022-12-11T01:13:00.486Z,18.92
2022-12-11T01:15:37.464Z,18.73
2022-12-11T01:18:06.512Z,19.17
2022-12-11T01:20:36.496Z,19.40
2022-12-11T01:23:03.147Z,19.10
2022-12-11T01:25:29.647Z,19.10
2022-12-11T01:27:56.242Z,20.58
2022-12-11T01:30:24.912Z,21.42
2022-12-11T01:32:52.272Z,20.20
2022-12-11T01:35:19.720Z,21.92
2022-12-11T01:37:47.418Z,21.60
2022-12-11T01:40:15.935Z,20.77
2022-12-11T01:42:42.661Z,21.00
2022-12-11T01:45:38.928Z,20.30
2022-12-11T01:48:09.320Z,20.33
2022-12-11T01:50:58.193Z,18.70
2022-12-11T01:53:33.290Z,19.92
2022-12-11T01:56:00.272Z,22.20
2022-12-11T01:58:33.865Z,19.33
2022-12-11T02:01:02.517Z,20.73
2022-12-11T02:03:29.003Z,19.77
2022-12-11T02:06:01.440Z,19.75
2022-12-11T02:08:28.480Z,21.15
2022-12-11T02:11:06.013Z,20.88
2022-12-11T02:13:56.412Z,20.90
2022-12-11T02:16:34.827Z,19.95
2022-12-11T02:19:40.103Z,19.85
2022-12-11T02:22:10.603Z,19.55
2022-12-11T02:24:47.989Z,19.50
2022-12-11T02:27:21.445Z,19.80
2022-12-11T02:30:02.473Z,19.98
2022-12-11T02:32:51.873Z,19.90
2022-12-11T02:35:34.646Z,21.00
2022-12-11T02:38:05.632Z,19.73
2022-12-11T02:40:36.806Z,20.95
2022-12-11T02:43:07.168Z,19.88
2022-12-11T02:45:35.409Z,21.20
2022-12-11T02:48:03.957Z,20.02
2022-12-11T02:50:31.008Z,22.10
2022-12-11T02:53:00.661Z,21.45
2022-12-11T02:55:29.678Z,20.77
2022-12-11T02:58:17.963Z,21.45
2022-12-11T03:00:46.350Z,21.50
2022-12-11T03:03:13.834Z,20.85
2022-12-11T03:05:41.885Z,22.70
2022-12-11T03:08:08.726Z,20.52
2022-12-11T03:10:35.239Z,20.88
2022-12-11T03:13:02.829Z,21.48
2022-12-11T03:15:37.388Z,20.55
2022-12-11T03:18:29.894Z,20.80
2022-12-11T03:21:09.314Z,21.08
2022-12-11T03:23:49.628Z,20.38
2022-12-11T03:26:19.462Z,21.05
2022-12-11T03:28:48.135Z,21.00
2022-12-11T03:31:27.741Z,22.15
2022-12-11T03:34:01.180Z,21.00
2022-12-11T03:36:34.651Z,21.90
2022-12-11T03:39:13.311Z,21.52
2022-12-11T03:41:41.093Z,21.65
2022-12-11T03:44:09.060Z,20.33
2022-12-11T03:46:39.518Z,21.42
2022-12-11T03:49:10.656Z,21.92
2022-12-11T03:51:38.912Z,21.08
2022-12-11T03:54:06.580Z,23.13
2022-12-11T03:56:36.796Z,22.35
2022-12-11T04:01:29.879Z,21.85
2022-12-11T04:03:56.585Z,22.23
2022-12-11T04:06:23.178Z,23.23
2022-12-11T04:08:49.626Z,22.90
2022-12-11T04:11:34.349Z,24.17
2022-12-11T04:14:28.157Z,25.27
2022-12-11T04:16:55.536Z,26.15
2022-12-11T04:19:41.382Z,24.05
2022-12-11T04:22:27.921Z,23.60
2022-12-11T04:24:54.418Z,25.60
2022-12-11T04:27:39.412Z,25.10
2022-12-11T04:30:11.305Z,24.08
2022-12-11T04:32:37.742Z,24.13
2022-12-11T04:35:06.180Z,24.95
2022-12-11T04:37:33.031Z,25.77
2022-12-11T04:39:59.423Z,24.90
2022-12-11T04:42:25.824Z,24.35
2022-12-11T04:44:52.247Z,26.00
2022-12-11T04:47:18.786Z,24.33
2022-12-11T04:49:45.203Z,24.75
2022-12-11T04:52:11.834Z,23.20
2022-12-11T04:54:38.470Z,24.40
2022-12-11T04:57:04.850Z,23.92
2022-12-11T04:59:32.924Z,24.13
2022-12-11T05:01:59.676Z,22.70
2022-12-11T05:04:26.386Z,22.60
2022-12-11T05:06:52.877Z,22.58
2022-12-11T05:09:19.446Z,21.77
2022-12-11T05:11:45.875Z,24.42
2022-12-11T05:14:12.427Z,23.60
2022-12-11T05:16:38.951Z,22.75
2022-12-11T05:19:05.432Z,23.98
2022-12-11T05:21:35.237Z,24.45
2022-12-11T05:24:05.111Z,23.05
2022-12-11T05:26:31.525Z,24.08
2022-12-11T05:28:57.947Z,24.60
2022-12-11T05:31:26.866Z,24.73
2022-12-11T05:33:54.431Z,25.73
2022-12-11T05:36:23.893Z,23.88
2022-12-11T05:38:51.630Z,23.27
2022-12-11T05:41:21.570Z,24.27
2022-12-11T05:43:48.633Z,24.77
2022-12-11T05:46:21.154Z,24.65
2022-12-11T05:48:50.063Z,26.10
2022-12-11T05:51:17.801Z,26.08
2022-12-11T05:53:46.364Z,28.40
2022-12-11T05:56:33.918Z,25.75
2022-12-11T05:59:01.894Z,25.25
2022-12-11T06:01:35.807Z,27.65
2022-12-11T06:04:04.146Z,25.23
2022-12-11T06:06:30.671Z,27.15
2022-12-11T06:08:59.229Z,27.58
2022-12-11T06:11:28.281Z,25.67
2022-12-11T06:13:55.660Z,25.00
2022-12-11T06:16:22.678Z,27.05
2022-12-11T06:18:49.355Z,25.67
2022-12-11T06:21:21.639Z,25.67
2022-12-11T06:23:50.215Z,26.60
2022-12-11T06:26:18.071Z,27.63
2022-12-11T06:28:44.927Z,26.98
2022-12-11T06:31:11.510Z,26.98
2022-12-11T06:33:38.318Z,26.05
2022-12-11T06:36:13.974Z,28.52
2022-12-11T06:38:40.718Z,26.58
2022-12-11T06:41:08.707Z,28.25
2022-12-11T06:43:37.399Z,27.25
2022-12-11T06:46:08.994Z,27.73
2022-12-11T06:48:35.509Z,25.60
2022-12-11T06:51:22.613Z,25.88
2022-12-11T06:53:54.036Z,27.92
2022-12-11T06:56:21.578Z,27.95
2022-12-11T06:58:48.348Z,29.10
2022-12-11T07:01:20.871Z,26.50
2022-12-11T07:03:47.828Z,26.92
2022-12-11T07:06:14.933Z,28.35
2022-12-11T07:08:42.103Z,28.08
2022-12-11T07:11:11.517Z,27.75
2022-12-11T07:13:38.499Z,29.98
2022-12-11T07:16:10.529Z,29.08
2022-12-11T07:18:43.186Z,28.55
2022-12-11T07:21:12.162Z,29.88
2022-12-11T07:23:38.654Z,31.17
2022-12-11T07:26:06.521Z,29.33
2022-12-11T07:28:33.945Z,29.40
2022-12-11T07:31:04.976Z,29.35
2022-12-11T07:33:31.366Z,30.30
2022-12-11T07:36:02.114Z,28.48
2022-12-11T07:38:28.632Z,30.80
2022-12-11T07:40:55.084Z,28.08
2022-12-11T07:43:21.543Z,29.48
2022-12-11T07:45:48.074Z,30.75
2022-12-11T07:48:14.504Z,28.65
2022-12-11T07:50:41.028Z,29.77
2022-12-11T07:53:07.739Z,28.45
2022-12-11T07:55:34.201Z,30.27
2022-12-11T07:58:00.607Z,30.25
2022-12-11T08:00:27.064Z,31.08
2022-12-11T08:02:53.480Z,31.15
2022-12-11T08:05:19.966Z,31.85
2022-12-11T08:07:47.044Z,30.27
2022-12-11T08:10:13.532Z,30.50
2022-12-11T08:12:39.972Z,31.23
2022-12-11T08:15:07.262Z,30.73
2022-12-11T08:17:39.833Z,31.08
2022-12-11T08:20:07.301Z,31.20
2022-12-11T08:22:34.203Z,30.90
2022-12-11T08:25:00.633Z,31.10
2022-12-11T08:27:27.034Z,30.88
2022-12-11T08:29:53.499Z,30.75
2022-12-11T08:32:19.932Z,30.73
2022-12-11T08:34:46.476Z,32.05
2022-12-11T08:37:13.598Z,32.70
2022-12-11T08:39:40.031Z,33.08
2022-12-11T08:42:07.187Z,33.17
2022-12-11T08:44:33.864Z,33.45
2022-12-11T08:47:00.326Z,33.50
2022-12-11T08:49:32.696Z,34.10
2022-12-11T08:52:00.755Z,32.88
2022-12-11T08:54:27.179Z,33.20
2022-12-11T08:56:57.704Z,36.70
2022-12-11T08:59:25.658Z,34.60
2022-12-11T09:01:52.289Z,37.78
2022-12-11T09:04:18.728Z,33.10
2022-12-11T09:06:45.104Z,33.60
2022-12-11T09:09:12.587Z,31.33
2022-12-11T09:11:39.182Z,31.27
2022-12-11T09:14:07.932Z,34.08
2022-12-11T09:16:37.725Z,32.40
2022-12-11T09:19:04.450Z,32.90
2022-12-11T09:21:30.973Z,33.22
2022-12-11T09:23:59.362Z,31.17
2022-12-11T09:26:26.961Z,31.15
2022-12-11T09:28:54.255Z,30.05
2022-12-11T09:31:26.899Z,31.55
2022-12-11T09:34:00.811Z,35.28
2022-12-11T09:36:28.041Z,36.33
2022-12-11T09:39:01.149Z,32.70
2022-12-11T09:41:51.842Z,32.55
2022-12-11T09:44:48.476Z,33.55
2022-12-11T09:47:21.075Z,32.30
2022-12-11T09:49:51.332Z,30.65
2022-12-11T09:52:29.491Z,29.20
2022-12-11T09:55:01.810Z,29.40
2022-12-11T09:57:39.359Z,33.85
2022-12-11T10:00:14.624Z,30.85
2022-12-11T10:02:50.157Z,32.55
2022-12-11T10:05:29.791Z,30.90
2022-12-11T10:08:22.565Z,30.73
2022-12-11T10:11:00.733Z,29.73
2022-12-11T10:14:08.649Z,28.20
2022-12-11T10:16:47.164Z,26.88
2022-12-11T10:19:34.739Z,27.50
2022-12-11T10:22:02.239Z,27.38
2022-12-11T10:25:12.606Z,25.90
2022-12-11T10:27:39.252Z,25.02
2022-12-11T10:30:15.594Z,25.55
2022-12-11T10:32:59.813Z,26.30
2022-12-11T10:35:35.710Z,24.35
2022-12-11T10:38:21.132Z,24.63
2022-12-11T10:40:52.941Z,22.88
2022-12-11T10:43:19.386Z,23.75
2022-12-11T10:45:55.283Z,24.67
2022-12-11T10:48:22.229Z,21.85
2022-12-11T10:51:02.613Z,22.02
2022-12-11T10:53:31.283Z,20.67
2022-12-11T10:56:00.936Z,20.80
2022-12-11T10:58:34.263Z,21.52
2022-12-11T11:01:09.059Z,24.65
2022-12-11T11:03:41.015Z,21.15
2022-12-11T11:06:19.207Z,21.02
2022-12-11T11:08:54.879Z,20.00
2022-12-11T11:11:26.847Z,20.17
2022-12-11T11:14:07.421Z,19.77
2022-12-11T11:16:37.993Z,19.63
2022-12-11T11:19:06.354Z,20.30
2022-12-11T11:21:34.806Z,20.48
2022-12-11T11:24:01.362Z,22.23
2022-12-11T11:27:04.428Z,21.15
2022-12-11T11:29:29.098Z,19.73
2022-12-11T11:31:55.583Z,20.30
2022-12-11T11:34:22.343Z,20.17
2022-12-11T11:36:58.128Z,20.13
2022-12-11T11:39:45.149Z,20.75
2022-12-11T11:42:50.396Z,21.58
2022-12-11T11:45:44.379Z,20.45
2022-12-11T11:48:34.244Z,19.70
2022-12-11T11:51:21.027Z,21.42
2022-12-11T11:53:50.918Z,24.60
2022-12-11T11:56:21.181Z,22.77
2022-12-11T12:01:22.641Z,19.30
2022-12-11T12:03:50.357Z,20.02
2022-12-11T12:06:52.077Z,21.15
2022-12-11T12:09:27.745Z,19.90
2022-12-11T12:12:20.917Z,20.20
2022-12-11T12:14:54.578Z,21.48
2022-12-11T12:17:37.953Z,19.08
2022-12-11T12:20:13.448Z,20.63
2022-12-11T12:22:52.250Z,19.95
2022-12-11T12:26:12.701Z,20.10
2022-12-11T12:32:01.481Z,20.65
2022-12-11T12:34:43.725Z,21.30
2022-12-11T12:37:34.815Z,21.20
2022-12-11T12:40:26.198Z,20.23
2022-12-11T12:42:55.316Z,22.35
2022-12-11T12:45:49.585Z,19.90
2022-12-11T12:48:16.574Z,20.42
2022-12-11T12:50:49.382Z,21.23
2022-12-11T12:53:23.721Z,21.02
2022-12-11T12:55:51.807Z,20.77
2022-12-11T12:58:28.453Z,20.30
2022-12-11T13:01:06.490Z,20.80
2022-12-11T13:03:37.970Z,19.88
2022-12-11T13:06:13.529Z,19.88
2022-12-11T13:08:49.657Z,19.45
2022-12-11T13:11:18.593Z,20.67
2022-12-11T13:14:05.257Z,20.40
2022-12-11T13:16:38.342Z,20.50
2022-12-11T13:19:22.623Z,21.90
2022-12-11T13:22:03.833Z,21.95
2022-12-11T13:24:34.156Z,20.60
2022-12-11T13:27:22.074Z,22.15
2022-12-11T13:29:48.688Z,24.67
2022-12-11T13:32:18.070Z,22.67
2022-12-11T13:34:53.614Z,22.67
2022-12-11T13:37:47.252Z,20.40
2022-12-11T13:40:27.454Z,22.00
2022-12-11T13:43:01.209Z,22.02
2022-12-11T13:45:37.283Z,20.80
2022-12-11T13:48:05.825Z,21.48
2022-12-11T13:50:34.556Z,20.50
2022-12-11T13:53:02.877Z,22.23
2022-12-11T13:55:34.579Z,22.65
2022-12-11T13:58:01.456Z,20.45
2022-12-11T14:00:32.112Z,21.23
2022-12-11T14:03:04.496Z,20.67
2022-12-11T14:05:31.217Z,21.38
2022-12-11T14:08:02.347Z,27.48
2022-12-11T14:10:32.392Z,24.02
2022-12-11T14:13:31.162Z,21.90
2022-12-11T14:15:57.740Z,22.55
2022-12-11T14:18:29.096Z,21.83
2022-12-11T14:20:57.976Z,22.13
2022-12-11T14:23:36.032Z,23.10
2022-12-11T14:26:24.538Z,23.05
2022-12-11T14:28:52.109Z,22.05
2022-12-11T14:31:30.967Z,22.30
2022-12-11T14:34:33.615Z,22.65
2022-12-11T14:37:02.663Z,22.42
2022-12-11T14:39:41.189Z,20.85
2022-12-11T14:42:12.780Z,22.27
2022-12-11T14:45:23.820Z,28.73
2022-12-11T14:47:52.775Z,28.20
2022-12-11T14:50:19.108Z,27.40
2022-12-11T14:52:53.427Z,27.75
2022-12-11T14:55:30.850Z,26.52
2022-12-11T14:58:02.683Z,23.90
2022-12-11T15:00:37.502Z,114.10
2022-12-11T15:03:27.498Z,82.32
2022-12-11T15:05:56.690Z,55.85
2022-12-11T15:08:30.171Z,48.57
2022-12-11T15:11:13.413Z,45.22
2022-12-11T15:13:55.599Z,48.28
2022-12-11T15:16:24.682Z,37.05
2022-12-11T15:18:53.642Z,42.63
2022-12-11T15:21:29.511Z,34.13
2022-12-11T15:23:58.391Z,32.92
2022-12-11T15:26:47.844Z,33.83
2022-12-11T15:29:35.518Z,28.48
2022-12-11T15:32:03.540Z,30.67
2022-12-11T15:34:35.308Z,30.05
2022-12-11T15:37:02.108Z,28.83
2022-12-11T15:39:28.558Z,29.80
2022-12-11T15:41:55.017Z,29.70
2022-12-11T15:44:23.712Z,31.23
2022-12-11T15:46:50.639Z,34.80
2022-12-11T15:49:18.900Z,33.60
2022-12-11T15:51:45.898Z,32.28
2022-12-11T15:54:12.349Z,30.98
2022-12-11T15:56:39.965Z,29.00
2022-12-11T15:59:06.952Z,28.13
2022-12-11T16:01:33.796Z,27.67
2022-12-11T16:04:04.918Z,25.83
2022-12-11T16:06:31.970Z,28.98
2022-12-11T16:08:58.619Z,47.28
2022-12-11T16:11:25.047Z,41.15
2022-12-11T16:13:51.479Z,35.83
2022-12-11T16:16:17.895Z,42.38
2022-12-11T16:18:44.362Z,43.42
2022-12-11T16:21:10.764Z,38.33
2022-12-11T16:23:37.346Z,36.53
2022-12-11T16:26:09.580Z,35.42
2022-12-11T16:28:36.031Z,33.53
2022-12-11T16:31:02.793Z,34.35
2022-12-11T16:33:29.347Z,32.28
2022-12-11T16:35:55.790Z,33.72
2022-12-11T16:38:22.223Z,34.55
2022-12-11T16:40:48.719Z,33.50
2022-12-11T16:43:15.199Z,35.55
2022-12-11T16:45:43.202Z,37.50
2022-12-11T16:48:09.637Z,36.15
2022-12-11T16:50:39.797Z,33.70
2022-12-11T16:55:32.735Z,32.70
2022-12-11T16:57:59.142Z,34.15
2022-12-11T17:00:25.645Z,34.70
2022-12-11T17:02:52.072Z,34.92
2022-12-11T17:05:18.901Z,33.33
2022-12-11T17:07:45.365Z,33.70
2022-12-11T17:10:11.891Z,35.35
2022-12-11T17:12:38.954Z,36.00
2022-12-11T17:15:05.947Z,37.10
2022-12-11T17:17:32.364Z,36.55
2022-12-11T17:19:58.951Z,42.15
2022-12-11T17:22:25.354Z,40.38
2022-12-11T17:24:51.816Z,45.83
2022-12-11T17:27:18.236Z,54.30
2022-12-11T17:29:44.907Z,65.30
2022-12-11T17:32:11.689Z,54.63
2022-12-11T17:34:38.881Z,57.75
2022-12-11T17:37:06.176Z,52.50
2022-12-11T17:39:32.594Z,52.80
2022-12-11T17:41:59.028Z,57.88
2022-12-11T17:44:26.771Z,61.10
2022-12-11T17:46:53.649Z,55.22
2022-12-11T17:49:20.187Z,52.70
2022-12-11T17:51:46.719Z,51.28
2022-12-11T17:54:13.673Z,52.05
2022-12-11T17:56:40.821Z,51.20
2022-12-11T17:59:07.248Z,48.88
2022-12-11T18:01:34.052Z,50.78
2022-12-11T18:04:01.835Z,50.30
2022-12-11T18:06:29.455Z,46.22
2022-12-11T18:08:56.873Z,50.35
2022-12-11T18:11:23.865Z,49.92
2022-12-11T18:13:51.823Z,53.08
2022-12-11T18:16:19.738Z,45.63
2022-12-11T18:18:47.654Z,49.75
2022-12-11T18:21:17.127Z,54.50
2022-12-11T18:23:44.097Z,50.97
2022-12-11T18:26:11.543Z,47.38
2022-12-11T18:28:37.946Z,48.72
2022-12-11T18:31:04.751Z,51.28
2022-12-11T18:33:32.137Z,52.70
2022-12-11T18:35:58.752Z,45.85
2022-12-11T18:38:25.278Z,48.42
2022-12-11T18:40:51.661Z,49.28
2022-12-11T18:43:18.095Z,43.25
2022-12-11T18:45:47.806Z,71.45
2022-12-11T18:48:15.131Z,51.33
2022-12-11T18:50:49.234Z,41.35
2022-12-11T18:53:17.010Z,44.25
2022-12-11T18:55:45.506Z,48.72
2022-12-11T18:58:14.304Z,43.38
2022-12-11T19:00:42.172Z,40.17
2022-12-11T19:03:09.860Z,40.20
2022-12-11T19:05:36.518Z,42.08
2022-12-11T19:08:03.743Z,51.60
2022-12-11T19:10:30.190Z,48.95
2022-12-11T19:12:56.988Z,49.88
2022-12-11T19:15:25.533Z,47.17
2022-12-11T19:17:52.068Z,44.28
2022-12-11T19:20:47.497Z,45.70
2022-12-11T19:23:05.805Z,44.50
2022-12-11T19:25:32.652Z,46.30
2022-12-11T19:27:59.140Z,43.92
2022-12-11T19:30:25.638Z,43.63
2022-12-11T19:32:52.042Z,44.60
2022-12-11T19:35:18.639Z,46.17
2022-12-11T19:37:45.086Z,43.78
2022-12-11T19:40:11.935Z,42.28
2022-12-11T19:42:38.572Z,43.28
2022-12-11T19:45:05.377Z,46.47
2022-12-11T19:47:31.989Z,46.28
2022-12-11T19:49:58.402Z,48.58
2022-12-11T19:52:24.832Z,46.63
2022-12-11T19:54:51.279Z,47.85
2022-12-11T19:57:17.754Z,44.80
2022-12-11T19:59:44.179Z,43.95
2022-12-11T20:02:12.179Z,45.17
2022-12-11T20:04:38.633Z,43.45
2022-12-11T20:07:05.129Z,46.05
2022-12-11T20:09:33.544Z,44.45
2022-12-11T20:11:59.931Z,45.13
2022-12-11T20:14:27.184Z,42.17
2022-12-11T20:17:11.860Z,41.97
2022-12-11T20:19:39.461Z,46.70
2022-12-11T20:22:06.092Z,41.30
2022-12-11T20:24:32.992Z,41.03
2022-12-11T20:27:00.155Z,42.05
2022-12-11T20:29:26.651Z,41.13
2022-12-11T20:31:53.110Z,44.05
2022-12-11T20:34:20.111Z,42.33
2022-12-11T20:36:49.385Z,41.53
2022-12-11T20:39:15.739Z,40.30
2022-12-11T20:41:42.306Z,39.85
2022-12-11T20:44:08.739Z,38.85
2022-12-11T20:46:35.245Z,40.35
2022-12-11T20:49:01.748Z,39.88
2022-12-11T20:51:28.970Z,39.90
2022-12-11T20:53:59.450Z,42.25
2022-12-11T20:56:28.840Z,40.47
2022-12-11T20:58:55.883Z,39.88
2022-12-11T21:01:24.544Z,40.95
2022-12-11T21:03:52.945Z,39.75
2022-12-11T21:06:31.014Z,43.22
2022-12-11T21:08:59.216Z,43.70
2022-12-11T21:11:25.893Z,39.20
2022-12-11T21:13:53.829Z,37.50
2022-12-11T21:16:20.755Z,39.60
2022-12-11T21:18:48.251Z,40.72
2022-12-11T21:21:15.138Z,38.15
2022-12-11T21:23:41.823Z,38.42
2022-12-11T21:26:08.591Z,36.97
2022-12-11T21:28:35.850Z,36.22
2022-12-11T21:31:10.766Z,37.17
2022-12-11T21:33:37.563Z,38.78
2022-12-11T21:36:06.866Z,37.55
2022-12-11T21:38:33.534Z,43.97
2022-12-11T21:41:10.751Z,39.70
2022-12-11T21:43:42.808Z,40.22
2022-12-11T21:46:26.777Z,43.22
2022-12-11T21:48:54.024Z,36.95
2022-12-11T21:51:29.745Z,38.83
2022-12-11T21:56:28.683Z,35.08
2022-12-11T21:58:55.405Z,36.92
2022-12-11T22:01:26.408Z,36.28
2022-12-11T22:03:53.525Z,35.92
2022-12-11T22:06:20.571Z,36.58
2022-12-11T22:08:49.083Z,35.83
2022-12-11T22:11:19.094Z,37.95
2022-12-11T22:13:47.830Z,36.20
2022-12-11T22:16:14.311Z,37.40
2022-12-11T22:18:40.844Z,36.22
2022-12-11T22:21:07.737Z,38.17
2022-12-11T22:23:34.201Z,38.42
2022-12-11T22:26:00.950Z,43.47
2022-12-11T22:28:27.520Z,38.08
2022-12-11T22:30:54.001Z,37.60
2022-12-11T22:33:21.821Z,37.95
2022-12-11T22:36:03.507Z,39.08
2022-12-11T22:38:29.928Z,48.53
2022-12-11T22:40:56.369Z,45.83
2022-12-11T22:43:22.769Z,66.75
2022-12-11T22:45:49.416Z,46.55
2022-12-11T22:48:16.017Z,39.83
2022-12-11T22:50:43.447Z,37.47
2022-12-11T22:53:10.092Z,37.83
2022-12-11T22:55:39.868Z,37.13
2022-12-11T22:58:07.371Z,38.63
2022-12-11T23:00:33.918Z,36.53
2022-12-11T23:03:00.869Z,37.05
2022-12-11T23:05:27.349Z,42.47
2022-12-11T23:07:53.924Z,39.67
2022-12-11T23:10:20.575Z,40.78
2022-12-11T23:12:47.022Z,39.33
2022-12-11T23:15:13.720Z,38.83
2022-12-11T23:17:40.314Z,37.80
2022-12-11T23:20:07.349Z,41.00
2022-12-11T23:22:33.885Z,36.88
2022-12-11T23:25:00.331Z,37.22
2022-12-11T23:27:26.792Z,37.03
2022-12-11T23:29:53.357Z,37.33
2022-12-11T23:32:19.743Z,36.63
2022-12-11T23:34:46.203Z,37.08
2022-12-11T23:37:12.671Z,36.00
2022-12-11T23:39:39.121Z,35.85
2022-12-11T23:42:05.737Z,35.97
2022-12-11T23:44:32.181Z,38.15
2022-12-11T23:46:58.603Z,36.00
2022-12-11T23:49:24.988Z,36.22
2022-12-11T23:51:51.380Z,36.85
2022-12-11T23:54:17.754Z,36.00
2022-12-11T23:56:44.195Z,37.00
2022-12-11T23:59:14.241Z,35.03
